sensor_id;sensor_type;location;lat;lon;timestamp;pressure;altitude;pressure_sealevel;temperature;humidity
44140;BME280;29803;51.048;4.686;2022-10-22T00:00:13;100825.97;;;13.24;100.00
44140;BME280;29803;51.048;4.686;2022-10-22T00:02:44;100832.13;;;13.33;100.00
44140;BME280;29803;51.048;4.686;2022-10-22T00:05:14;100824.22;;;13.31;100.00
44140;BME280;29803;51.048;4.686;2022-10-22T00:07:45;100825.06;;;13.32;100.00
44140;BME280;29803;51.048;4.686;2022-10-22T00:10:15;100823.41;;;13.31;100.00
44140;BME280;29803;51.048;4.686;2022-10-22T00:12:48;100830.25;;;13.33;100.00
44140;BME280;29803;51.048;4.686;2022-10-22T00:15:18;100842.69;;;13.34;100.00
44140;BME280;29803;51.048;4.686;2022-10-22T00:17:49;100843.91;;;13.32;100.00
44140;BME280;29803;51.048;4.686;2022-10-22T00:20:19;100851.72;;;13.27;100.00
44140;BME280;29803;51.048;4.686;2022-10-22T00:22:50;100864.72;;;13.23;100.00
44140;BME280;29803;51.048;4.686;2022-10-22T00:25:20;100863.19;;;13.20;100.00
44140;BME280;29803;51.048;4.686;2022-10-22T00:27:51;100862.00;;;13.23;100.00
44140;BME280;29803;51.048;4.686;2022-10-22T00:30:21;100859.31;;;13.23;100.00
44140;BME280;29803;51.048;4.686;2022-10-22T00:32:52;100862.84;;;13.24;100.00
44140;BME280;29803;51.048;4.686;2022-10-22T00:35:22;100866.56;;;13.23;100.00
44140;BME280;29803;51.048;4.686;2022-10-22T00:37:52;100864.91;;;13.21;100.00
44140;BME280;29803;51.048;4.686;2022-10-22T00:40:23;100861.50;;;13.19;100.00
44140;BME280;29803;51.048;4.686;2022-10-22T00:42:54;100872.78;;;13.23;100.00
44140;BME280;29803;51.048;4.686;2022-10-22T00:45:26;100868.72;;;13.27;100.00
44140;BME280;29803;51.048;4.686;2022-10-22T00:48:04;100870.38;;;13.28;100.00
44140;BME280;29803;51.048;4.686;2022-10-22T00:50:46;100865.00;;;13.28;100.00
44140;BME280;29803;51.048;4.686;2022-10-22T00:53:38;100866.84;;;13.28;100.00
44140;BME280;29803;51.048;4.686;2022-10-22T00:56:09;100868.59;;;13.20;100.00
44140;BME280;29803;51.048;4.686;2022-10-22T00:58:47;100868.47;;;13.14;100.00
44140;BME280;29803;51.048;4.686;2022-10-22T01:01:23;100866.69;;;13.06;100.00
44140;BME280;29803;51.048;4.686;2022-10-22T01:03:54;100863.31;;;13.04;100.00
44140;BME280;29803;51.048;4.686;2022-10-22T01:06:30;100860.06;;;12.94;100.00
44140;BME280;29803;51.048;4.686;2022-10-22T01:09:06;100859.75;;;12.89;100.00
44140;BME280;29803;51.048;4.686;2022-10-22T01:11:52;100862.81;;;12.86;100.00
44140;BME280;29803;51.048;4.686;2022-10-22T01:17:27;100870.13;;;12.77;100.00
44140;BME280;29803;51.048;4.686;2022-10-22T01:22:42;100869.63;;;12.74;100.00
44140;BME280;29803;51.048;4.686;2022-10-22T01:28:04;100873.69;;;12.69;100.00
44140;BME280;29803;51.048;4.686;2022-10-22T01:30:39;100870.31;;;12.76;100.00
44140;BME280;29803;51.048;4.686;2022-10-22T01:33:12;100874.00;;;12.75;100.00
44140;BME280;29803;51.048;4.686;2022-10-22T01:35:44;100869.81;;;12.72;100.00
44140;BME280;29803;51.048;4.686;2022-10-22T01:38:18;100865.63;;;12.69;100.00
44140;BME280;29803;51.048;4.686;2022-10-22T01:40:50;100876.78;;;12.66;100.00
44140;BME280;29803;51.048;4.686;2022-10-22T01:43:21;100872.22;;;12.67;100.00
44140;BME280;29803;51.048;4.686;2022-10-22T01:45:58;100873.88;;;12.68;100.00
44140;BME280;29803;51.048;4.686;2022-10-22T01:54:45;100879.63;;;12.65;100.00
44140;BME280;29803;51.048;4.686;2022-10-22T01:57:25;100888.25;;;12.60;100.00
44140;BME280;29803;51.048;4.686;2022-10-22T02:00:05;100887.09;;;12.55;100.00
44140;BME280;29803;51.048;4.686;2022-10-22T02:05:42;100881.25;;;12.51;100.00
44140;BME280;29803;51.048;4.686;2022-10-22T02:08:21;100879.00;;;12.55;100.00
44140;BME280;29803;51.048;4.686;2022-10-22T02:10:53;100882.50;;;12.63;100.00
44140;BME280;29803;51.048;4.686;2022-10-22T02:13:29;100882.59;;;12.70;100.00
44140;BME280;29803;51.048;4.686;2022-10-22T02:16:07;100886.16;;;12.70;100.00
44140;BME280;29803;51.048;4.686;2022-10-22T02:18:40;100886.47;;;12.76;100.00
44140;BME280;29803;51.048;4.686;2022-10-22T02:21:13;100881.44;;;12.73;100.00
44140;BME280;29803;51.048;4.686;2022-10-22T02:23:45;100885.25;;;12.78;100.00
44140;BME280;29803;51.048;4.686;2022-10-22T02:26:34;100882.38;;;12.80;100.00
44140;BME280;29803;51.048;4.686;2022-10-22T02:29:14;100874.25;;;12.88;100.00
44140;BME280;29803;51.048;4.686;2022-10-22T02:31:49;100884.56;;;12.99;100.00
44140;BME280;29803;51.048;4.686;2022-10-22T02:34:23;100879.69;;;13.03;100.00
44140;BME280;29803;51.048;4.686;2022-10-22T02:36:56;100890.75;;;13.08;100.00
44140;BME280;29803;51.048;4.686;2022-10-22T02:39:29;100890.41;;;13.11;100.00
44140;BME280;29803;51.048;4.686;2022-10-22T02:42:01;100894.53;;;13.21;100.00
44140;BME280;29803;51.048;4.686;2022-10-22T02:44:32;100893.88;;;13.34;100.00
44140;BME280;29803;51.048;4.686;2022-10-22T02:47:02;100896.03;;;13.39;100.00
44140;BME280;29803;51.048;4.686;2022-10-22T02:49:33;100895.88;;;13.40;100.00
44140;BME280;29803;51.048;4.686;2022-10-22T02:52:03;100903.56;;;13.43;100.00
44140;BME280;29803;51.048;4.686;2022-10-22T02:54:34;100898.38;;;13.42;100.00
44140;BME280;29803;51.048;4.686;2022-10-22T02:57:04;100903.78;;;13.42;100.00
44140;BME280;29803;51.048;4.686;2022-10-22T02:59:34;100894.19;;;13.39;100.00
44140;BME280;29803;51.048;4.686;2022-10-22T03:02:05;100899.47;;;13.33;100.00
44140;BME280;29803;51.048;4.686;2022-10-22T03:04:35;100895.94;;;13.32;100.00
44140;BME280;29803;51.048;4.686;2022-10-22T03:07:06;100890.75;;;13.31;100.00
44140;BME280;29803;51.048;4.686;2022-10-22T03:09:36;100905.41;;;13.28;100.00
44140;BME280;29803;51.048;4.686;2022-10-22T03:12:07;100906.63;;;13.26;100.00
44140;BME280;29803;51.048;4.686;2022-10-22T03:14:37;100909.31;;;13.26;100.00
44140;BME280;29803;51.048;4.686;2022-10-22T03:17:08;100911.34;;;13.24;100.00
44140;BME280;29803;51.048;4.686;2022-10-22T03:19:38;100913.53;;;13.20;100.00
44140;BME280;29803;51.048;4.686;2022-10-22T03:22:14;100916.22;;;13.20;100.00
44140;BME280;29803;51.048;4.686;2022-10-22T03:24:49;100923.47;;;13.19;100.00
44140;BME280;29803;51.048;4.686;2022-10-22T03:27:21;100924.28;;;13.20;100.00
44140;BME280;29803;51.048;4.686;2022-10-22T03:29:52;100930.91;;;13.17;100.00
44140;BME280;29803;51.048;4.686;2022-10-22T03:32:23;100922.81;;;13.17;100.00
44140;BME280;29803;51.048;4.686;2022-10-22T03:34:53;100927.19;;;13.18;100.00
44140;BME280;29803;51.048;4.686;2022-10-22T03:37:24;100926.06;;;13.13;100.00
44140;BME280;29803;51.048;4.686;2022-10-22T03:39:56;100924.38;;;13.12;100.00
44140;BME280;29803;51.048;4.686;2022-10-22T03:42:26;100934.31;;;13.11;100.00
44140;BME280;29803;51.048;4.686;2022-10-22T03:44:57;100931.63;;;13.11;100.00
44140;BME280;29803;51.048;4.686;2022-10-22T03:47:27;100932.47;;;13.12;100.00
44140;BME280;29803;51.048;4.686;2022-10-22T03:49:58;100924.00;;;13.15;100.00
44140;BME280;29803;51.048;4.686;2022-10-22T03:52:34;100935.44;;;13.17;100.00
44140;BME280;29803;51.048;4.686;2022-10-22T03:55:06;100943.72;;;13.15;100.00
44140;BME280;29803;51.048;4.686;2022-10-22T03:57:37;100931.38;;;13.21;100.00
44140;BME280;29803;51.048;4.686;2022-10-22T04:00:08;100933.56;;;13.26;100.00
44140;BME280;29803;51.048;4.686;2022-10-22T04:02:38;100940.72;;;13.33;100.00
44140;BME280;29803;51.048;4.686;2022-10-22T04:05:09;100932.75;;;13.40;100.00
44140;BME280;29803;51.048;4.686;2022-10-22T04:07:39;100940.66;;;13.41;100.00
44140;BME280;29803;51.048;4.686;2022-10-22T04:10:10;100931.84;;;13.47;100.00
44140;BME280;29803;51.048;4.686;2022-10-22T04:12:40;100943.09;;;13.51;100.00
44140;BME280;29803;51.048;4.686;2022-10-22T04:15:11;100937.16;;;13.56;100.00
44140;BME280;29803;51.048;4.686;2022-10-22T04:17:41;100947.75;;;13.57;100.00
44140;BME280;29803;51.048;4.686;2022-10-22T04:20:12;100950.94;;;13.61;100.00
44140;BME280;29803;51.048;4.686;2022-10-22T04:22:42;100956.97;;;13.63;100.00
44140;BME280;29803;51.048;4.686;2022-10-22T04:25:12;100956.13;;;13.62;100.00
44140;BME280;29803;51.048;4.686;2022-10-22T04:27:43;100951.75;;;13.61;100.00
44140;BME280;29803;51.048;4.686;2022-10-22T04:30:13;100958.16;;;13.60;100.00
44140;BME280;29803;51.048;4.686;2022-10-22T04:32:44;100952.13;;;13.58;100.00
44140;BME280;29803;51.048;4.686;2022-10-22T04:35:14;100956.38;;;13.53;100.00
44140;BME280;29803;51.048;4.686;2022-10-22T04:37:45;100956.75;;;13.50;100.00
44140;BME280;29803;51.048;4.686;2022-10-22T04:40:15;100958.78;;;13.47;100.00
44140;BME280;29803;51.048;4.686;2022-10-22T04:42:46;100955.63;;;13.44;100.00
44140;BME280;29803;51.048;4.686;2022-10-22T04:45:16;100959.69;;;13.40;100.00
44140;BME280;29803;51.048;4.686;2022-10-22T04:47:47;100959.88;;;13.38;100.00
44140;BME280;29803;51.048;4.686;2022-10-22T04:50:17;100954.50;;;13.38;100.00
44140;BME280;29803;51.048;4.686;2022-10-22T04:52:48;100963.13;;;13.34;100.00
44140;BME280;29803;51.048;4.686;2022-10-22T04:55:18;100969.22;;;13.28;100.00
44140;BME280;29803;51.048;4.686;2022-10-22T04:57:49;100977.84;;;13.23;100.00
44140;BME280;29803;51.048;4.686;2022-10-22T05:00:19;100980.03;;;13.19;100.00
44140;BME280;29803;51.048;4.686;2022-10-22T05:02:50;100984.28;;;13.14;100.00
44140;BME280;29803;51.048;4.686;2022-10-22T05:05:20;100978.91;;;13.14;100.00
44140;BME280;29803;51.048;4.686;2022-10-22T05:07:51;100985.31;;;13.13;100.00
44140;BME280;29803;51.048;4.686;2022-10-22T05:10:21;100985.31;;;13.13;100.00
44140;BME280;29803;51.048;4.686;2022-10-22T05:12:51;100991.91;;;13.10;100.00
44140;BME280;29803;51.048;4.686;2022-10-22T05:15:22;100989.75;;;13.06;100.00
44140;BME280;29803;51.048;4.686;2022-10-22T05:17:52;100994.16;;;12.99;100.00
44140;BME280;29803;51.048;4.686;2022-10-22T05:20:23;100998.59;;;12.91;100.00
44140;BME280;29803;51.048;4.686;2022-10-22T05:22:53;100991.38;;;12.84;100.00
44140;BME280;29803;51.048;4.686;2022-10-22T05:25:23;100998.50;;;12.77;100.00
44140;BME280;29803;51.048;4.686;2022-10-22T05:27:54;100994.50;;;12.73;100.00
44140;BME280;29803;51.048;4.686;2022-10-22T05:30:24;100990.63;;;12.75;100.00
44140;BME280;29803;51.048;4.686;2022-10-22T05:32:55;100993.13;;;12.77;100.00
44140;BME280;29803;51.048;4.686;2022-10-22T05:35:25;101000.00;;;12.79;100.00
44140;BME280;29803;51.048;4.686;2022-10-22T05:37:56;101002.66;;;12.87;100.00
44140;BME280;29803;51.048;4.686;2022-10-22T05:40:26;101008.47;;;12.99;100.00
44140;BME280;29803;51.048;4.686;2022-10-22T05:42:57;101006.22;;;13.11;100.00
44140;BME280;29803;51.048;4.686;2022-10-22T05:45:27;101009.34;;;13.23;100.00
44140;BME280;29803;51.048;4.686;2022-10-22T05:47:58;101014.69;;;13.31;100.00
44140;BME280;29803;51.048;4.686;2022-10-22T05:50:28;101020.19;;;13.37;100.00
44140;BME280;29803;51.048;4.686;2022-10-22T05:52:59;101024.00;;;13.43;100.00
44140;BME280;29803;51.048;4.686;2022-10-22T05:55:33;101019.09;;;13.46;100.00
44140;BME280;29803;51.048;4.686;2022-10-22T05:58:06;101030.19;;;13.52;100.00
44140;BME280;29803;51.048;4.686;2022-10-22T06:00:36;101024.25;;;13.56;100.00
44140;BME280;29803;51.048;4.686;2022-10-22T06:03:06;101027.88;;;13.63;100.00
44140;BME280;29803;51.048;4.686;2022-10-22T06:05:37;101034.41;;;13.69;100.00
44140;BME280;29803;51.048;4.686;2022-10-22T06:08:10;101040.28;;;13.72;100.00
44140;BME280;29803;51.048;4.686;2022-10-22T06:10:42;101036.22;;;13.77;100.00
44140;BME280;29803;51.048;4.686;2022-10-22T06:13:13;101038.50;;;13.80;100.00
44140;BME280;29803;51.048;4.686;2022-10-22T06:15:44;101046.06;;;13.84;100.00
44140;BME280;29803;51.048;4.686;2022-10-22T06:18:14;101042.81;;;13.89;100.00
44140;BME280;29803;51.048;4.686;2022-10-22T06:20:45;101047.19;;;13.90;100.00
44140;BME280;29803;51.048;4.686;2022-10-22T06:23:16;101051.75;;;13.89;100.00
44140;BME280;29803;51.048;4.686;2022-10-22T06:25:57;101060.31;;;13.93;100.00
44140;BME280;29803;51.048;4.686;2022-10-22T06:28:28;101062.19;;;13.92;100.00
44140;BME280;29803;51.048;4.686;2022-10-22T06:31:00;101069.72;;;13.97;100.00
44140;BME280;29803;51.048;4.686;2022-10-22T06:33:32;101072.50;;;14.04;100.00
44140;BME280;29803;51.048;4.686;2022-10-22T06:36:06;101068.25;;;14.09;100.00
44140;BME280;29803;51.048;4.686;2022-10-22T06:38:38;101069.06;;;14.10;100.00
44140;BME280;29803;51.048;4.686;2022-10-22T06:41:13;101075.31;;;14.10;100.00
44140;BME280;29803;51.048;4.686;2022-10-22T06:43:45;101078.88;;;14.11;100.00
44140;BME280;29803;51.048;4.686;2022-10-22T06:46:18;101090.09;;;14.14;100.00
44140;BME280;29803;51.048;4.686;2022-10-22T06:48:56;101095.16;;;14.17;100.00
44140;BME280;29803;51.048;4.686;2022-10-22T06:51:27;101091.91;;;14.22;100.00
44140;BME280;29803;51.048;4.686;2022-10-22T06:53:58;101099.63;;;14.25;100.00
44140;BME280;29803;51.048;4.686;2022-10-22T06:56:28;101104.47;;;14.30;100.00
44140;BME280;29803;51.048;4.686;2022-10-22T06:58:59;101100.03;;;14.37;100.00
44140;BME280;29803;51.048;4.686;2022-10-22T07:01:31;101107.00;;;14.46;100.00
44140;BME280;29803;51.048;4.686;2022-10-22T07:04:03;101108.59;;;14.55;100.00
44140;BME280;29803;51.048;4.686;2022-10-22T07:06:34;101115.31;;;14.59;100.00
44140;BME280;29803;51.048;4.686;2022-10-22T07:09:04;101114.97;;;14.62;100.00
44140;BME280;29803;51.048;4.686;2022-10-22T07:11:43;101118.28;;;14.64;100.00
44140;BME280;29803;51.048;4.686;2022-10-22T07:14:14;101114.75;;;14.64;100.00
44140;BME280;29803;51.048;4.686;2022-10-22T07:16:46;101128.25;;;14.64;100.00
44140;BME280;29803;51.048;4.686;2022-10-22T07:19:17;101128.34;;;14.70;100.00
44140;BME280;29803;51.048;4.686;2022-10-22T07:21:48;101132.81;;;14.78;100.00
44140;BME280;29803;51.048;4.686;2022-10-22T07:24:18;101135.81;;;14.83;100.00
44140;BME280;29803;51.048;4.686;2022-10-22T07:26:49;101132.28;;;14.83;100.00
44140;BME280;29803;51.048;4.686;2022-10-22T07:29:19;101141.69;;;14.87;100.00
44140;BME280;29803;51.048;4.686;2022-10-22T07:31:50;101134.41;;;14.87;100.00
44140;BME280;29803;51.048;4.686;2022-10-22T07:34:21;101140.94;;;14.93;100.00
44140;BME280;29803;51.048;4.686;2022-10-22T07:36:52;101142.66;;;15.00;100.00
44140;BME280;29803;51.048;4.686;2022-10-22T07:39:23;101147.34;;;15.43;100.00
44140;BME280;29803;51.048;4.686;2022-10-22T07:41:55;101149.72;;;16.10;100.00
44140;BME280;29803;51.048;4.686;2022-10-22T07:44:25;101153.34;;;16.73;100.00
44140;BME280;29803;51.048;4.686;2022-10-22T07:46:57;101155.50;;;16.91;100.00
44140;BME280;29803;51.048;4.686;2022-10-22T07:49:28;101164.63;;;16.55;100.00
44140;BME280;29803;51.048;4.686;2022-10-22T07:51:58;101163.06;;;16.40;100.00
44140;BME280;29803;51.048;4.686;2022-10-22T07:54:29;101171.38;;;16.31;100.00
44140;BME280;29803;51.048;4.686;2022-10-22T07:56:59;101176.97;;;16.09;100.00
44140;BME280;29803;51.048;4.686;2022-10-22T07:59:30;101189.72;;;16.15;100.00
44140;BME280;29803;51.048;4.686;2022-10-22T08:02:00;101187.22;;;16.13;100.00
44140;BME280;29803;51.048;4.686;2022-10-22T08:04:31;101195.59;;;16.18;100.00
44140;BME280;29803;51.048;4.686;2022-10-22T08:07:02;101187.59;;;16.10;100.00
44140;BME280;29803;51.048;4.686;2022-10-22T08:09:32;101197.31;;;16.26;100.00
44140;BME280;29803;51.048;4.686;2022-10-22T08:12:03;101203.81;;;16.81;100.00
44140;BME280;29803;51.048;4.686;2022-10-22T08:14:34;101208.94;;;16.97;100.00
44140;BME280;29803;51.048;4.686;2022-10-22T08:17:04;101217.47;;;17.01;100.00
44140;BME280;29803;51.048;4.686;2022-10-22T08:19:35;101221.44;;;16.98;100.00
44140;BME280;29803;51.048;4.686;2022-10-22T08:22:05;101222.97;;;16.79;100.00
44140;BME280;29803;51.048;4.686;2022-10-22T08:24:36;101229.13;;;16.67;100.00
44140;BME280;29803;51.048;4.686;2022-10-22T08:27:06;101242.94;;;16.50;100.00
44140;BME280;29803;51.048;4.686;2022-10-22T08:29:37;101233.28;;;16.41;100.00
44140;BME280;29803;51.048;4.686;2022-10-22T08:32:09;101241.22;;;16.21;100.00
44140;BME280;29803;51.048;4.686;2022-10-22T08:34:40;101246.44;;;16.23;100.00
44140;BME280;29803;51.048;4.686;2022-10-22T08:37:10;101241.47;;;16.26;100.00
44140;BME280;29803;51.048;4.686;2022-10-22T08:39:44;101235.28;;;16.33;100.00
44140;BME280;29803;51.048;4.686;2022-10-22T08:50:49;101268.41;;;16.35;100.00
44140;BME280;29803;51.048;4.686;2022-10-22T08:53:26;101275.06;;;16.32;100.00
44140;BME280;29803;51.048;4.686;2022-10-22T08:55:58;101283.56;;;16.29;100.00
44140;BME280;29803;51.048;4.686;2022-10-22T08:58:46;101282.94;;;16.27;100.00
44140;BME280;29803;51.048;4.686;2022-10-22T09:01:32;101276.16;;;16.38;100.00
44140;BME280;29803;51.048;4.686;2022-10-22T09:04:25;101282.94;;;16.48;100.00
44140;BME280;29803;51.048;4.686;2022-10-22T09:06:58;101286.09;;;16.52;100.00
44140;BME280;29803;51.048;4.686;2022-10-22T09:09:32;101293.31;;;16.45;100.00
44140;BME280;29803;51.048;4.686;2022-10-22T09:12:05;101287.13;;;16.29;100.00
44140;BME280;29803;51.048;4.686;2022-10-22T09:14:36;101283.38;;;16.30;100.00
44140;BME280;29803;51.048;4.686;2022-10-22T09:17:11;101290.13;;;16.84;100.00
44140;BME280;29803;51.048;4.686;2022-10-22T09:20:10;101297.00;;;17.91;100.00
44140;BME280;29803;51.048;4.686;2022-10-22T09:23:17;101298.50;;;18.00;100.00
44140;BME280;29803;51.048;4.686;2022-10-22T09:25:50;101306.03;;;18.04;100.00
44140;BME280;29803;51.048;4.686;2022-10-22T09:28:20;101307.47;;;18.00;100.00
44140;BME280;29803;51.048;4.686;2022-10-22T09:30:51;101311.72;;;17.68;100.00
44140;BME280;29803;51.048;4.686;2022-10-22T09:33:27;101304.69;;;17.39;100.00
44140;BME280;29803;51.048;4.686;2022-10-22T09:36:00;101310.31;;;17.38;100.00
44140;BME280;29803;51.048;4.686;2022-10-22T09:38:45;101313.13;;;17.57;100.00
44140;BME280;29803;51.048;4.686;2022-10-22T09:41:17;101317.28;;;18.01;100.00
44140;BME280;29803;51.048;4.686;2022-10-22T09:43:48;101323.13;;;18.73;100.00
44140;BME280;29803;51.048;4.686;2022-10-22T09:46:21;101330.00;;;19.15;100.00
44140;BME280;29803;51.048;4.686;2022-10-22T09:49:08;101332.63;;;19.75;100.00
44140;BME280;29803;51.048;4.686;2022-10-22T09:51:55;101321.66;;;19.95;100.00
44140;BME280;29803;51.048;4.686;2022-10-22T09:57:09;101334.72;;;19.53;100.00
44140;BME280;29803;51.048;4.686;2022-10-22T09:59:46;101344.81;;;19.32;100.00
44140;BME280;29803;51.048;4.686;2022-10-22T10:02:19;101349.38;;;19.52;100.00
44140;BME280;29803;51.048;4.686;2022-10-22T10:04:52;101349.19;;;19.47;100.00
44140;BME280;29803;51.048;4.686;2022-10-22T10:07:27;101354.50;;;19.08;100.00
44140;BME280;29803;51.048;4.686;2022-10-22T10:09:59;101350.47;;;18.58;100.00
44140;BME280;29803;51.048;4.686;2022-10-22T10:18:08;101362.09;;;18.25;100.00
44140;BME280;29803;51.048;4.686;2022-10-22T10:26:02;101358.47;;;18.99;100.00
44140;BME280;29803;51.048;4.686;2022-10-22T10:37:05;101362.22;;;19.25;100.00
44140;BME280;29803;51.048;4.686;2022-10-22T10:42:47;101376.66;;;19.05;100.00
44140;BME280;29803;51.048;4.686;2022-10-22T10:45:34;101377.72;;;18.98;100.00
44140;BME280;29803;51.048;4.686;2022-10-22T10:51:06;101378.34;;;19.00;100.00
44140;BME280;29803;51.048;4.686;2022-10-22T10:53:50;101363.66;;;19.27;100.00
44140;BME280;29803;51.048;4.686;2022-10-22T11:11:00;101351.94;;;19.40;100.00
44140;BME280;29803;51.048;4.686;2022-10-22T11:19:12;101352.09;;;19.52;100.00
44140;BME280;29803;51.048;4.686;2022-10-22T11:24:24;101354.84;;;19.45;100.00
44140;BME280;29803;51.048;4.686;2022-10-22T11:27:10;101352.16;;;19.25;100.00
44140;BME280;29803;51.048;4.686;2022-10-22T11:29:48;101357.59;;;19.38;100.00
44140;BME280;29803;51.048;4.686;2022-10-22T11:32:22;101362.19;;;19.45;100.00
44140;BME280;29803;51.048;4.686;2022-10-22T11:34:58;101361.34;;;19.44;100.00
44140;BME280;29803;51.048;4.686;2022-10-22T11:37:32;101361.34;;;19.44;100.00
44140;BME280;29803;51.048;4.686;2022-10-22T11:40:07;101364.69;;;19.59;100.00
44140;BME280;29803;51.048;4.686;2022-10-22T11:42:56;101372.41;;;19.76;100.00
44140;BME280;29803;51.048;4.686;2022-10-22T11:45:30;101361.22;;;19.97;100.00
44140;BME280;29803;51.048;4.686;2022-10-22T11:50:43;101375.28;;;20.32;100.00
44140;BME280;29803;51.048;4.686;2022-10-22T11:53:32;101381.94;;;20.81;100.00
44140;BME280;29803;51.048;4.686;2022-10-22T12:01:21;101387.22;;;20.76;100.00
44140;BME280;29803;51.048;4.686;2022-10-22T12:06:59;101380.22;;;20.10;100.00
44140;BME280;29803;51.048;4.686;2022-10-22T12:09:31;101383.66;;;19.86;100.00
44140;BME280;29803;51.048;4.686;2022-10-22T12:12:12;101370.97;;;19.27;100.00
44140;BME280;29803;51.048;4.686;2022-10-22T12:14:56;101377.47;;;19.12;100.00
44140;BME280;29803;51.048;4.686;2022-10-22T12:17:27;101368.47;;;19.45;100.00
44140;BME280;29803;51.048;4.686;2022-10-22T12:20:11;101377.66;;;19.51;100.00
44140;BME280;29803;51.048;4.686;2022-10-22T12:22:42;101374.72;;;19.52;100.00
44140;BME280;29803;51.048;4.686;2022-10-22T12:25:23;101376.84;;;19.44;100.00
44140;BME280;29803;51.048;4.686;2022-10-22T12:27:57;101380.81;;;19.34;100.00
44140;BME280;29803;51.048;4.686;2022-10-22T12:30:33;101376.25;;;19.15;100.00
44140;BME280;29803;51.048;4.686;2022-10-22T12:33:06;101375.81;;;19.11;100.00
44140;BME280;29803;51.048;4.686;2022-10-22T12:35:45;101372.69;;;19.14;100.00
44140;BME280;29803;51.048;4.686;2022-10-22T12:38:21;101367.88;;;19.10;100.00
44140;BME280;29803;51.048;4.686;2022-10-22T12:40:54;101366.59;;;19.39;100.00
44140;BME280;29803;51.048;4.686;2022-10-22T12:43:28;101358.38;;;19.59;100.00
44140;BME280;29803;51.048;4.686;2022-10-22T12:45:59;101362.13;;;19.84;100.00
44140;BME280;29803;51.048;4.686;2022-10-22T12:48:32;101355.63;;;19.72;100.00
44140;BME280;29803;51.048;4.686;2022-10-22T12:51:08;101352.72;;;19.67;100.00
44140;BME280;29803;51.048;4.686;2022-10-22T12:53:49;101357.13;;;19.55;100.00
44140;BME280;29803;51.048;4.686;2022-10-22T12:56:34;101353.38;;;19.49;100.00
44140;BME280;29803;51.048;4.686;2022-10-22T12:59:14;101350.06;;;19.40;100.00
44140;BME280;29803;51.048;4.686;2022-10-22T13:01:49;101337.50;;;19.39;100.00
44140;BME280;29803;51.048;4.686;2022-10-22T13:04:37;101347.34;;;19.27;100.00
44140;BME280;29803;51.048;4.686;2022-10-22T13:12:27;101331.47;;;19.24;100.00
44140;BME280;29803;51.048;4.686;2022-10-22T13:18:17;101335.59;;;19.60;100.00
44140;BME280;29803;51.048;4.686;2022-10-22T13:23:28;101331.56;;;19.76;100.00
44140;BME280;29803;51.048;4.686;2022-10-22T13:26:14;101337.03;;;19.69;100.00
44140;BME280;29803;51.048;4.686;2022-10-22T13:28:51;101332.16;;;19.78;100.00
44140;BME280;29803;51.048;4.686;2022-10-22T13:31:26;101337.03;;;19.69;100.00
44140;BME280;29803;51.048;4.686;2022-10-22T13:34:01;101341.19;;;19.72;100.00
44140;BME280;29803;51.048;4.686;2022-10-22T13:36:33;101341.00;;;19.66;100.00
44140;BME280;29803;51.048;4.686;2022-10-22T13:39:05;101332.88;;;19.60;100.00
44140;BME280;29803;51.048;4.686;2022-10-22T13:41:38;101325.50;;;19.74;100.00
44140;BME280;29803;51.048;4.686;2022-10-22T13:44:08;101338.69;;;19.70;100.00
44140;BME280;29803;51.048;4.686;2022-10-22T13:46:39;101337.03;;;19.56;100.00
44140;BME280;29803;51.048;4.686;2022-10-22T13:49:17;101339.75;;;19.69;100.00
44140;BME280;29803;51.048;4.686;2022-10-22T13:51:49;101337.03;;;19.69;100.00
44140;BME280;29803;51.048;4.686;2022-10-22T13:54:22;101338.28;;;19.73;100.00
44140;BME280;29803;51.048;4.686;2022-10-22T13:56:53;101344.16;;;19.70;100.00
44140;BME280;29803;51.048;4.686;2022-10-22T13:59:24;101339.53;;;19.57;100.00
44140;BME280;29803;51.048;4.686;2022-10-22T14:01:54;101343.56;;;19.41;100.00
44140;BME280;29803;51.048;4.686;2022-10-22T14:04:26;101343.41;;;19.03;100.00
44140;BME280;29803;51.048;4.686;2022-10-22T14:06:56;101351.13;;;19.06;100.00
44140;BME280;29803;51.048;4.686;2022-10-22T14:09:27;101349.25;;;19.07;100.00
44140;BME280;29803;51.048;4.686;2022-10-22T14:11:57;101345.91;;;19.05;100.00
44140;BME280;29803;51.048;4.686;2022-10-22T14:14:28;101345.50;;;19.08;100.00
44140;BME280;29803;51.048;4.686;2022-10-22T14:16:58;101354.69;;;19.07;100.00
44140;BME280;29803;51.048;4.686;2022-10-22T14:19:29;101344.63;;;19.07;100.00
44140;BME280;29803;51.048;4.686;2022-10-22T14:22:00;101345.06;;;19.11;100.00
44140;BME280;29803;51.048;4.686;2022-10-22T14:24:31;101344.84;;;19.19;100.00
44140;BME280;29803;51.048;4.686;2022-10-22T14:27:01;101351.75;;;19.28;100.00
44140;BME280;29803;51.048;4.686;2022-10-22T14:29:32;101356.34;;;19.34;100.00
44140;BME280;29803;51.048;4.686;2022-10-22T14:32:02;101353.19;;;19.44;100.00
44140;BME280;29803;51.048;4.686;2022-10-22T14:34:33;101352.34;;;19.44;100.00
44140;BME280;29803;51.048;4.686;2022-10-22T14:37:04;101347.94;;;19.42;100.00
44140;BME280;29803;51.048;4.686;2022-10-22T14:39:35;101353.00;;;19.39;100.00
44140;BME280;29803;51.048;4.686;2022-10-22T14:42:09;101347.97;;;19.29;100.00
44140;BME280;29803;51.048;4.686;2022-10-22T14:44:40;101344.22;;;19.24;100.00
44140;BME280;29803;51.048;4.686;2022-10-22T14:47:10;101342.31;;;19.18;100.00
44140;BME280;29803;51.048;4.686;2022-10-22T14:49:41;101346.75;;;19.19;100.00